Terminal Aerodrome Forecast
Issued by NWS

Home | Current Version | Previous Version | Text Only | Print | Product List | Glossary On
Versions: 1 2 3 4 5 6 7 8 9 10 11 12 13 14 15 16 17 18 19 20 21 22 23 24 25 26
000
FTUS43 KTOP 251100
TAFMHK
TAF
KMHK 251120Z 2512/2612 28005KT 5SM TSRA SCT015 BKN050CB
     FM251300 17010KT P6SM VCSH SCT010 BKN040
     FM251600 18015G26KT P6SM SCT040 BKN250
     FM260000 19011KT 6SM -TSRA OVC050CB
     FM260900 19008KT P6SM BKN090=

USA.gov is the U.S. government's official web portal to all federal, state and local government web resources and services.